• Join FlightAware (Why Join?)
  • Login
  • US Flag 
06:43PM EDT


 

Airport Tracker/Info


-or-


 

Live Flight TrackerFlight Track Log ✈ RPA4886 ✈ 07-May-2013 ✈ KIAD - KALB

Flight Track Log - Related Links

Times and Time Zones

All times are in EDT time to prevent confusion due to time zone crossing. See the RPA4886 flight status page for this flight to view local times or setup timezone preferences in your user account.

Time Position Orientation Groundspeed Altitude Reporting Facility
EDT Latitude Longitude Course Direction KTS MPH feet Rate Location/Type
06:04PM 38.9667 -77.5333 North 213 245 2,100  Level Potomac TRACON
06:05PM 39.0000 -77.6000 303° West 256 295 4,200 1,740 Climbing Potomac TRACON
06:06PM 39.2265 -77.4500 North  Level FlightAware Approximate
06:06PM 39.0456 -77.6656 312° West 283 326 5,500  Level Washington Center
06:07PM 39.3242 -77.4500 North  Level FlightAware Approximate
06:07PM 39.1114 -77.7208 327° Northwest 265 305 6,900  Level Washington Center
06:08PM 39.4220 -77.4500 North  Level FlightAware Approximate
06:08PM 39.1603 -77.6581 45° Northeast 198 228 8,900  Level Washington Center
06:09PM 39.5197 -77.4500 North  Level FlightAware Approximate
06:09PM 39.2319 -77.6228 21° North 229 264 10,600  Level Washington Center
06:10PM 39.3117 -77.5900 18° North 270 311 12,000 1,440 Climbing Washington Center
06:11PM 39.3933 -77.5572 17° North 292 336 13,500 1,440 Climbing Washington Center
06:12PM 39.4753 -77.5247 17° North 302 348 15,000 780 Climbing Washington Center
06:13PM 39.5633 -77.4867 18° North 308 354 15,100 300 Climbing Washington Center
06:14PM 39.6803 -77.4531 12° North 329 379 15,700 660 Climbing New York Center
06:15PM 39.7867 -77.4522 360° North 335 386 16,800 960 Climbing New York Center
06:16PM 39.8703 -77.4494 North 330 380 17,700 600 Climbing New York Center
06:17PM 39.9553 -77.3844 30° Northeast 312 359 18,000 120 Climbing New York Center
06:18PM 40.0297 -77.3208 33° Northeast 337 388 18,000 480 Level New York Center
06:19PM 40.1192 -77.2478 32° Northeast 343 395 19,000 900 Climbing New York Center
06:20PM 40.1978 -77.1819 33° Northeast 338 389 19,900 900 Climbing New York Center
06:21PM 40.2742 -77.1181 33° Northeast 338 389 20,900 960 Climbing New York Center
06:22PM 40.3525 -77.0572 31° Northeast 333 383 21,800 840 Climbing New York Center
06:23PM 40.4267 -76.9958 32° Northeast 333 383 22,600 540 Climbing New York Center
06:24PM 40.5125 -76.9517 21° North 328 377 23,000 180 Climbing New York Center
06:25PM 40.6042 -76.9106 19° North 328 377 23,000  Level New York Center
06:26PM 40.6983 -76.8644 20° North 341 392 23,000  Level New York Center
06:27PM 40.7944 -76.8181 20° North 352 405 23,000  Level New York Center
06:28PM 40.8883 -76.7714 21° North 357 411 23,000  Level New York Center
06:29PM 40.9825 -76.7247 21° North 357 411 23,000  Level New York Center
06:30PM 41.0764 -76.6806 20° North 357 411 23,000  Level New York Center
06:31PM 41.1725 -76.6339 20° North 357 411 23,000  Level New York Center
06:32PM 41.2664 -76.5897 19° North 357 411 23,000  Level New York Center
06:33PM 41.3625 -76.5425 20° North 357 411 23,000  Level New York Center
06:34PM 41.4372 -76.5047 21° North 357 411 23,000  Level New York Center
06:35PM 41.5397 -76.4525 21° North 357 411 23,000  Level New York Center
06:36PM 41.6314 -76.4047 21° North 357 411 23,000  Level New York Center
06:37PM 41.7256 -76.3517 23° Northeast 357 411 23,000  Level New York Center
06:39PM 41.9369 -76.2222 24° Northeast 355 409 23,000  Level Boston Center
06:40PM 42.0319 -76.1886 15° North 355 409 23,000  Level Boston Center
06:41PM 42.1272 -76.1494 17° North 355 409 23,000  Level Boston Center
06:42PM 42.1906 -76.0553 48° Northeast 332 382 23,000  Level Boston Center
06:44PM 42.2367 -75.9119 66° East 325 374 23,000  Level Boston Center
06:45PM 42.2778 -75.7964 64° Northeast 331 381 23,000  Level Boston Center
06:46PM 42.3167 -75.6806 66° East 331 381 23,000 -540 Level Boston Center
06:47PM 42.3594 -75.5619 64° Northeast 336 387 22,000 -1,260 Descending Boston Center
06:48PM 42.4022 -75.4431 64° Northeast 336 387 20,500 -1,500 Descending Boston Center
06:49PM 42.4472 -75.3214 63° Northeast 342 394 19,000 -1,500 Descending Boston Center
06:50PM 42.4856 -75.2078 65° Northeast 342 394 17,600 -1,500 Descending Boston Center
06:51PM 42.5281 -75.0856 65° Northeast 342 394 16,100 -1,500 Descending Boston Center
06:52PM 42.5722 -74.9747 62° Northeast 337 388 14,600 -1,500 Descending Boston Center
06:53PM 42.6142 -74.8664 62° Northeast 332 382 13,100 -1,500 Descending Boston Center
06:54PM 42.6539 -74.7550 64° Northeast 325 374 11,600 -1,080 Descending Boston Center
06:55PM 42.6958 -74.6408 63° Northeast 317 365 11,000 -300 Descending Boston Center
06:56PM 42.7311 -74.5458 63° Northeast 312 359 11,000 -480 Level Boston Center
06:57PM 42.7708 -74.4256 66° East 317 365 10,100 -1,020 Descending Boston Center
06:58PM 42.7869 -74.3356 76° East 286 329 9,000 -1,440 Descending Boston Center
06:59PM 42.8092 -74.2372 73° East 253 291 7,300 -1,680 Descending Boston Center
06:59PM 42.8139 -74.2147 74° East 251 289 6,900 -1,740 Descending Boston Center
07:00PM 42.8272 -74.1528 74° East 248 285 5,600 -1,800 Descending Boston Center
07:00PM 42.8339 -74.1275 70° East 245 282 5,100 -1,860 Descending Boston Center
07:01PM 42.8456 -74.0400 80° East 235 270 3,300 -1,260 Descending Boston Center
07:02PM 42.8528 -73.9781 81° East 237 273 3,000 -600 Descending Boston Center
07:02PM 42.8508 -73.9525 96° East 233 268 2,700 -1,080 Descending Boston Center
07:03PM 42.8542 -73.8619 87° East 235 270 1,600 -720 Descending Boston Center
07:04PM 42.8153 -73.8100 136° Southeast 190 219 1,300 -300 Descending Boston Center